Time;durP1;ratioP1;P1;durP2;ratioP2;P2;SDS_P1;SDS_P2;PMS_P1;PMS_P2;Temp;Humidity;BMP_temperature;BMP_pressure;BME280_temperature;BME280_humidity;BME280_pressure;Samples;Min_cycle;Max_cycle;Signal;HPM_P1;HPM_P2
2022/08/29 00:00:35;;;;;;;4.87;3.93;;;19.30;99.90;18.80;100303;;;;553077;255;24148;-78
2022/08/29 00:03:03;;;;;;;5.27;4.03;;;19.20;99.90;18.70;100303;;;;553405;255;24143;-78
2022/08/29 00:05:31;;;;;;;5.33;4.27;;;19.20;99.90;18.70;100293;;;;553403;255;24179;-78
2022/08/29 00:08:02;;;;;;;8.13;4.50;;;19.20;99.90;18.70;100286;;;;553285;255;24195;-79
2022/08/29 00:10:27;;;;;;;5.73;3.93;;;19.10;99.90;18.70;100276;;;;561208;255;24207;-81
2022/08/29 00:12:55;;;;;;;4.13;3.73;;;19.10;99.90;18.60;100276;;;;552428;255;24170;-79
2022/08/29 00:15:23;;;;;;;5.00;3.97;;;19.10;99.90;18.60;100267;;;;552619;255;24175;-80
2022/08/29 00:17:52;;;;;;;5.83;4.20;;;19.00;99.90;18.50;100258;;;;553114;255;24194;-81
2022/08/29 00:20:21;;;;;;;6.22;5.47;;;19.00;99.90;18.50;100262;;;;548233;255;35620;-78
2022/08/29 00:22:48;;;;;;;6.80;4.97;;;19.00;99.90;18.40;100250;;;;553040;255;24129;-82
2022/08/29 00:25:16;;;;;;;5.97;4.40;;;19.00;99.90;18.40;100255;;;;553166;255;24218;-80
2022/08/29 00:27:44;;;;;;;6.40;5.23;;;18.90;99.90;18.30;100245;;;;553150;255;24133;-81
2022/08/29 00:30:16;;;;;;;6.00;4.40;;;18.90;99.90;18.30;100234;;;;552625;255;24150;-80
2022/08/29 00:32:40;;;;;;;7.07;4.97;;;18.80;99.90;18.20;100239;;;;552874;255;24135;-79
2022/08/29 00:35:10;;;;;;;7.73;5.07;;;18.80;99.90;18.20;100233;;;;552980;255;24143;-79
2022/08/29 00:37:41;;;;;;;6.30;5.23;;;18.70;99.90;18.20;100216;;;;552927;255;24174;-78
2022/08/29 00:40:07;;;;;;;6.53;5.23;;;18.70;99.90;18.10;100219;;;;552651;255;24185;-79
2022/08/29 00:42:34;;;;;;;8.50;5.03;;;18.60;99.90;18.10;100206;;;;553280;254;24187;-78
2022/08/29 00:45:02;;;;;;;6.47;5.43;;;18.60;99.90;18.00;100205;;;;554240;255;24155;-78
2022/08/29 00:47:31;;;;;;;7.27;5.57;;;18.50;99.90;18.00;100210;;;;553882;255;24147;-79
2022/08/29 00:49:58;;;;;;;7.20;5.80;;;18.50;99.90;17.90;100202;;;;553781;255;24198;-81
2022/08/29 00:52:38;;;;;;;9.63;5.40;;;18.40;99.90;17.90;100195;;;;561688;255;24139;-82
2022/08/29 00:55:08;;;;;;;6.33;5.30;;;18.40;99.90;17.90;100195;;;;552654;255;24150;-81
2022/08/29 00:57:34;;;;;;;11.03;5.80;;;18.40;99.90;17.80;100199;;;;553166;255;24187;-82
2022/08/29 01:00:02;;;;;;;10.30;5.20;;;18.40;99.90;17.80;100199;;;;553287;255;24186;-82
2022/08/29 01:02:29;;;;;;;9.77;5.40;;;18.30;99.90;17.80;100202;;;;553437;255;24194;-82
2022/08/29 01:04:59;;;;;;;7.03;5.17;;;18.30;99.90;17.80;100195;;;;553390;255;24140;-82
2022/08/29 01:07:29;;;;;;;7.60;5.07;;;18.30;99.90;17.80;100185;;;;553428;255;24157;-83
2022/08/29 01:09:54;;;;;;;7.83;4.90;;;18.30;99.90;17.80;100204;;;;561327;252;24139;-82
2022/08/29 01:12:23;;;;;;;9.43;4.77;;;18.30;99.90;17.80;100196;;;;553507;255;25209;-83
2022/08/29 01:14:54;;;;;;;5.37;4.63;;;18.20;99.90;17.70;100195;;;;553530;255;24162;-80
2022/08/29 01:17:31;;;;;;;6.33;4.30;;;18.20;99.90;17.70;100201;;;;553318;255;24158;-81
2022/08/29 01:20:18;;;;;;;13.90;5.30;;;18.20;99.90;17.70;100198;;;;552930;252;24194;-80
2022/08/29 01:23:11;;;;;;;10.33;4.27;;;18.30;99.90;17.70;100195;;;;545719;259;24238;-81
2022/08/29 01:25:39;;;;;;;5.73;4.40;;;18.30;99.90;17.70;100189;;;;561521;254;24184;-82
2022/08/29 01:28:07;;;;;;;6.70;4.27;;;18.30;99.90;17.70;100187;;;;554078;254;24169;-80
2022/08/29 01:30:38;;;;;;;7.27;4.67;;;18.20;99.90;17.70;100183;;;;551397;254;24158;-78
2022/08/29 01:33:03;;;;;;;10.67;4.50;;;18.20;99.90;17.70;100192;;;;554008;254;24193;-78
2022/08/29 01:35:32;;;;;;;8.67;4.53;;;18.20;99.90;17.70;100193;;;;562496;254;24143;-78
2022/08/29 01:37:59;;;;;;;7.27;4.07;;;18.20;99.90;17.70;100187;;;;554056;250;24152;-79
2022/08/29 01:40:27;;;;;;;10.13;4.23;;;18.20;99.90;17.70;100183;;;;554365;254;24204;-79
2022/08/29 01:42:56;;;;;;;6.20;4.40;;;18.20;99.90;17.70;100183;;;;554145;254;24189;-77
2022/08/29 01:45:23;;;;;;;8.63;4.50;;;18.20;99.90;17.60;100178;;;;554284;254;24184;-77
2022/08/29 01:47:51;;;;;;;10.93;5.40;;;18.10;99.90;17.60;100186;;;;554255;254;24163;-79
2022/08/29 01:50:19;;;;;;;8.80;4.43;;;18.10;99.90;17.60;100182;;;;554344;254;24213;-81
2022/08/29 01:52:46;;;;;;;6.57;4.93;;;18.10;99.90;17.60;100184;;;;554258;254;24145;-78
2022/08/29 01:55:14;;;;;;;9.43;4.87;;;18.10;99.90;17.50;100181;;;;555229;254;24164;-79
2022/08/29 01:57:43;;;;;;;12.27;4.50;;;18.00;99.90;17.50;100176;;;;555318;254;24142;-80
2022/08/29 02:00:14;;;;;;;13.13;4.70;;;18.00;99.90;17.50;100180;;;;554891;254;24156;-81
2022/08/29 02:02:43;;;;;;;9.23;4.27;;;18.00;99.90;17.50;100186;;;;555148;254;25191;-78
2022/08/29 02:05:12;;;;;;;8.17;4.33;;;18.00;99.90;17.50;100178;;;;554931;254;24146;-78
2022/08/29 02:07:36;;;;;;;11.33;4.63;;;18.00;99.90;17.50;100188;;;;554774;254;24197;-78
2022/08/29 02:10:04;;;;;;;8.53;4.00;;;18.00;99.90;17.50;100185;;;;555131;254;24165;-77
2022/08/29 02:12:33;;;;;;;8.33;4.17;;;18.00;99.90;17.50;100186;;;;563222;254;24146;-77
2022/08/29 02:15:01;;;;;;;9.00;3.90;;;17.90;99.90;17.50;100189;;;;554678;254;24140;-78
2022/08/29 02:17:29;;;;;;;8.13;4.00;;;18.00;99.90;17.50;100189;;;;554873;254;24181;-78
2022/08/29 02:19:57;;;;;;;7.45;4.87;;;18.00;99.90;17.50;100193;;;;550020;254;57503;-78
2022/08/29 02:22:24;;;;;;;7.13;4.53;;;18.00;99.90;17.40;100189;;;;554916;254;24175;-81
2022/08/29 02:24:52;;;;;;;7.90;4.13;;;18.00;99.90;17.40;100184;;;;554949;254;24207;-78
2022/08/29 02:27:20;;;;;;;10.70;4.27;;;17.90;99.90;17.40;100193;;;;554827;254;24165;-78
2022/08/29 02:29:48;;;;;;;12.20;4.40;;;17.90;99.90;17.40;100194;;;;554868;254;24143;-78
2022/08/29 02:32:16;;;;;;;10.23;3.83;;;17.90;99.90;17.40;100190;;;;554297;254;24245;-78
2022/08/29 02:34:44;;;;;;;7.40;3.80;;;17.90;99.90;17.40;100205;;;;554364;254;24235;-81
2022/08/29 02:37:15;;;;;;;15.30;4.37;;;17.90;99.90;17.40;100203;;;;554217;254;24298;-78
2022/08/29 02:39:40;;;;;;;13.23;4.57;;;17.90;99.90;17.30;100212;;;;554193;254;24158;-78
2022/08/29 02:42:08;;;;;;;10.50;3.70;;;17.90;99.90;17.30;100214;;;;554219;254;24154;-78
2022/08/29 02:44:37;;;;;;;6.87;3.33;;;17.90;99.90;17.30;100209;;;;554327;254;24164;-80
2022/08/29 02:47:07;;;;;;;8.50;4.00;;;17.80;99.90;17.30;100211;;;;554143;254;24164;-78
2022/08/29 02:49:32;;;;;;;10.00;3.77;;;17.80;99.90;17.30;100216;;;;554037;254;24214;-78
2022/08/29 02:52:01;;;;;;;9.70;3.57;;;17.80;99.90;17.30;100210;;;;554408;254;24248;-81
2022/08/29 02:54:28;;;;;;;8.07;4.20;;;17.80;99.90;17.30;100209;;;;554189;254;24213;-77
2022/08/29 02:56:56;;;;;;;8.80;4.00;;;17.90;99.90;17.40;100212;;;;554335;254;24263;-77
2022/08/29 02:59:24;;;;;;;6.80;4.07;;;17.90;99.90;17.40;100205;;;;554359;254;24175;-81
2022/08/29 03:01:52;;;;;;;11.47;4.23;;;17.80;99.90;17.30;100206;;;;554428;254;24157;-78
2022/08/29 03:04:20;;;;;;;8.73;4.23;;;17.90;99.90;17.30;100207;;;;554626;254;24136;-77
2022/08/29 03:06:48;;;;;;;7.73;4.00;;;17.90;99.90;17.30;100207;;;;555662;254;24207;-77
2022/08/29 03:09:16;;;;;;;8.20;4.17;;;17.90;99.90;17.30;100207;;;;555739;254;24187;-80
2022/08/29 03:11:44;;;;;;;8.17;4.20;;;17.90;99.90;17.30;100199;;;;555569;254;24126;-78
2022/08/29 03:14:12;;;;;;;7.63;4.33;;;17.90;99.90;17.30;100207;;;;555477;254;24130;-79
2022/08/29 03:16:40;;;;;;;7.13;4.40;;;17.80;99.90;17.30;100206;;;;555331;254;24182;-79
2022/08/29 03:19:08;;;;;;;8.83;4.00;;;17.90;99.90;17.40;100203;;;;555096;254;24171;-77
2022/08/29 03:21:35;;;;;;;10.17;4.20;;;17.90;99.90;17.40;100208;;;;555131;254;24178;-77
2022/08/29 03:24:04;;;;;;;8.57;4.47;;;17.90;99.90;17.40;100204;;;;555066;254;24194;-81
2022/08/29 03:26:32;;;;;;;13.53;3.87;;;17.90;99.90;17.40;100201;;;;554828;254;24139;-81
2022/08/29 03:29:00;;;;;;;8.33;3.90;;;17.90;99.90;17.40;100205;;;;554921;254;24149;-81
2022/08/29 03:31:29;;;;;;;8.40;3.87;;;18.00;99.90;17.50;100216;;;;554777;254;25214;-82
2022/08/29 03:33:57;;;;;;;8.87;4.03;;;17.90;99.90;17.50;100212;;;;554584;254;25216;-81
2022/08/29 03:36:28;;;;;;;9.38;5.32;;;18.00;99.90;17.50;100214;;;;549697;254;57691;-82
2022/08/29 03:38:56;;;;;;;6.07;4.27;;;18.00;99.90;17.50;100219;;;;554467;254;24215;-81
2022/08/29 03:41:23;;;;;;;8.43;4.63;;;18.00;99.90;17.50;100220;;;;553808;254;24146;-82
2022/08/29 03:43:51;;;;;;;5.93;3.80;;;18.00;99.90;17.50;100224;;;;554420;254;24215;-80
2022/08/29 03:46:19;;;;;;;6.03;3.97;;;18.00;99.90;17.50;100228;;;;554271;254;24139;-79
2022/08/29 03:48:47;;;;;;;4.67;3.87;;;18.00;99.90;17.50;100225;;;;554329;254;24138;-79
2022/08/29 03:51:15;;;;;;;9.13;4.27;;;18.00;99.90;17.50;100227;;;;553799;254;24138;-78
2022/08/29 03:53:43;;;;;;;6.10;3.70;;;18.00;99.90;17.50;100220;;;;554163;254;24154;-80
2022/08/29 03:56:15;;;;;;;7.57;4.03;;;18.00;99.90;17.50;100220;;;;553533;254;24207;-79
2022/08/29 03:58:39;;;;;;;9.37;3.90;;;18.00;99.90;17.50;100231;;;;553638;254;24171;-80
2022/08/29 04:01:11;;;;;;;8.33;4.17;;;18.00;99.90;17.50;100229;;;;553866;254;24183;-79
2022/08/29 04:03:36;;;;;;;8.60;4.07;;;18.00;99.90;17.50;100229;;;;553822;254;24199;-78
2022/08/29 04:06:04;;;;;;;8.27;4.13;;;18.00;99.90;17.50;100222;;;;554621;254;24167;-78
2022/08/29 04:08:33;;;;;;;9.03;4.00;;;18.00;99.90;17.50;100229;;;;554087;254;24143;-78
2022/08/29 04:11:03;;;;;;;7.40;3.37;;;18.00;99.90;17.50;100232;;;;554432;254;24167;-78
2022/08/29 04:13:28;;;;;;;8.43;4.33;;;18.00;99.90;17.50;100226;;;;554276;254;24177;-79
2022/08/29 04:15:56;;;;;;;8.60;4.20;;;18.00;99.90;17.50;100223;;;;554537;254;24186;-78
2022/08/29 04:18:24;;;;;;;5.73;3.60;;;18.00;99.90;17.50;100232;;;;555601;254;24134;-80
2022/08/29 04:20:52;;;;;;;6.57;4.07;;;18.00;99.90;17.50;100221;;;;555675;254;24211;-80
2022/08/29 04:23:19;;;;;;;8.63;4.27;;;18.00;99.90;17.50;100224;;;;554392;254;24177;-78
2022/08/29 04:25:47;;;;;;;6.50;4.30;;;18.00;99.90;17.50;100219;;;;555210;254;24169;-79
2022/08/29 04:28:16;;;;;;;11.67;4.27;;;18.00;99.90;17.50;100227;;;;555104;254;24154;-79
2022/08/29 04:30:48;;;;;;;12.43;4.13;;;18.00;99.90;17.50;100219;;;;555025;254;24131;-79
2022/08/29 04:33:15;;;;;;;5.57;3.80;;;18.00;99.90;17.50;100229;;;;554934;254;24138;-79
2022/08/29 04:35:43;;;;;;;6.77;4.53;;;18.00;99.90;17.40;100223;;;;554999;254;24143;-79
2022/08/29 04:38:11;;;;;;;11.40;4.60;;;17.90;99.90;17.50;100224;;;;554834;254;24154;-80
2022/08/29 04:40:41;;;;;;;10.60;5.40;;;18.00;99.90;17.40;100224;;;;554842;254;24182;-78
2022/08/29 04:43:08;;;;;;;10.00;3.80;;;17.90;99.90;17.50;100231;;;;554590;254;24188;-79
2022/08/29 04:45:39;;;;;;;6.13;4.20;;;17.90;99.90;17.50;100229;;;;554380;254;24153;-78
2022/08/29 04:48:04;;;;;;;9.07;4.90;;;18.00;99.90;17.50;100229;;;;562405;251;24193;-79
2022/08/29 04:50:32;;;;;;;10.10;4.93;;;18.00;99.90;17.50;100226;;;;554480;254;24134;-82
2022/08/29 04:53:00;;;;;;;7.90;4.27;;;18.00;99.90;17.50;100231;;;;554830;254;24197;-79
2022/08/29 04:55:31;;;;;;;10.30;5.30;;;18.00;99.90;17.50;100229;;;;562473;254;24191;-80
2022/08/29 04:57:59;;;;;;;7.37;4.10;;;18.00;99.90;17.50;100226;;;;562036;251;24128;-82
2022/08/29 05:00:27;;;;;;;7.83;5.20;;;18.00;99.90;17.60;100236;;;;553997;254;24197;-80
2022/08/29 05:02:54;;;;;;;6.20;4.80;;;18.10;99.90;17.60;100236;;;;553464;254;24165;-80
2022/08/29 05:05:22;;;;;;;8.83;5.23;;;18.10;99.90;17.60;100240;;;;554614;254;24247;-83
2022/08/29 05:07:54;;;;;;;10.40;5.03;;;18.20;99.90;17.70;100237;;;;554722;254;24151;-81
2022/08/29 05:10:22;;;;;;;10.80;5.07;;;18.20;99.90;17.70;100241;;;;554191;254;24158;-79
2022/08/29 05:12:46;;;;;;;7.77;4.73;;;18.20;99.90;17.80;100236;;;;553696;254;24265;-79
2022/08/29 05:15:17;;;;;;;11.20;5.03;;;18.30;99.90;17.80;100236;;;;554770;254;24123;-81
2022/08/29 05:17:42;;;;;;;7.70;4.57;;;18.30;99.90;17.90;100233;;;;562510;254;24154;-80
2022/08/29 05:20:14;;;;;;;10.97;4.90;;;18.40;99.90;17.90;100232;;;;554741;254;24201;-80
2022/08/29 05:22:38;;;;;;;8.57;4.43;;;18.40;99.90;17.90;100229;;;;543272;260;24157;-82
2022/08/29 05:25:07;;;;;;;8.53;4.07;;;18.40;99.90;17.90;100235;;;;563234;251;24180;-79
2022/08/29 05:27:34;;;;;;;12.07;4.27;;;18.40;99.90;17.90;100241;;;;561495;252;24153;-79
2022/08/29 05:30:03;;;;;;;10.40;4.10;;;18.50;99.90;17.90;100249;;;;554224;255;24146;-78
2022/08/29 05:32:30;;;;;;;4.67;3.93;;;18.50;99.90;18.00;100246;;;;553785;255;24257;-81
2022/08/29 05:34:59;;;;;;;9.30;4.20;;;18.50;99.90;18.10;100247;;;;553542;255;24181;-80
2022/08/29 05:37:27;;;;;;;7.90;4.47;;;18.70;99.90;18.20;100252;;;;553398;255;24180;-79
2022/08/29 05:39:56;;;;;;;8.23;4.40;;;18.80;99.90;18.30;100252;;;;553138;255;24153;-80
2022/08/29 05:42:26;;;;;;;6.50;4.03;;;18.90;99.90;18.40;100254;;;;553260;255;24166;-81
2022/08/29 05:44:52;;;;;;;7.07;4.00;;;18.90;99.90;18.50;100256;;;;553097;255;24171;-81
2022/08/29 05:47:20;;;;;;;6.07;3.67;;;18.90;99.90;18.50;100255;;;;553179;255;24194;-81
2022/08/29 05:49:48;;;;;;;7.10;3.93;;;19.00;99.90;18.40;100261;;;;561034;252;24171;-82
2022/08/29 05:52:16;;;;;;;6.80;3.53;;;19.00;99.90;18.40;100268;;;;553079;255;24241;-83
2022/08/29 05:54:44;;;;;;;4.47;3.57;;;18.90;99.90;18.40;100263;;;;553019;255;24139;-81
2022/08/29 05:57:12;;;;;;;5.57;3.77;;;18.90;99.90;18.40;100258;;;;552866;255;24238;-81
2022/08/29 05:59:40;;;;;;;8.47;3.93;;;18.80;99.90;18.40;100250;;;;553037;255;24198;-82
2022/08/29 06:02:11;;;;;;;4.73;3.53;;;18.80;99.90;18.40;100259;;;;552630;255;24212;-81
2022/08/29 06:04:36;;;;;;;6.90;3.60;;;18.80;99.90;18.30;100261;;;;553205;251;24149;-81
2022/08/29 06:07:04;;;;;;;6.17;3.13;;;18.80;99.90;18.30;100259;;;;553201;255;24131;-81
2022/08/29 06:09:36;;;;;;;8.17;3.80;;;18.80;99.90;18.50;100259;;;;562829;255;24127;-81
2022/08/29 06:12:00;;;;;;;4.70;3.43;;;18.90;99.90;19.90;100268;;;;560936;252;24132;-79
2022/08/29 06:14:31;;;;;;;2.93;2.73;;;19.90;99.90;22.50;100275;;;;553305;255;24185;-82
2022/08/29 06:16:56;;;;;;;4.77;2.63;;;22.20;99.90;25.10;100268;;;;552752;255;24132;-82
2022/08/29 06:19:27;;;;;;;8.23;3.53;;;27.00;99.90;27.30;100262;;;;553197;255;24145;-83
2022/08/29 06:21:56;;;;;;;2.30;2.10;;;28.80;99.90;28.90;100261;;;;552877;255;23176;-82
2022/08/29 06:24:24;;;;;;;3.87;2.40;;;28.70;99.90;30.60;100264;;;;552821;255;23254;-81
2022/08/29 06:26:53;;;;;;;3.00;2.17;;;32.10;99.90;32.20;100263;;;;552803;255;25246;-82
2022/08/29 06:29:22;;;;;;;2.60;2.15;;;33.50;93.90;33.40;100266;;;;552889;255;23207;-81
2022/08/29 06:31:49;;;;;;;4.37;1.90;;;33.30;93.80;34.80;100261;;;;552880;255;23173;-80
2022/08/29 06:34:17;;;;;;;4.32;1.80;;;34.80;88.80;36.00;100269;;;;553316;255;24140;-82
2022/08/29 06:36:45;;;;;;;6.70;2.20;;;36.00;79.20;37.10;100275;;;;553154;255;23147;-82
2022/08/29 06:39:13;;;;;;;4.43;2.45;;;37.10;71.10;37.40;100270;;;;553138;255;23163;-83
2022/08/29 06:41:41;;;;;;;3.00;1.70;;;37.70;67.00;37.70;100271;;;;554338;255;23195;-82
2022/08/29 06:44:09;;;;;;;2.17;1.80;;;38.00;63.50;38.40;100278;;;;554084;255;23142;-82
2022/08/29 06:46:37;;;;;;;2.67;1.87;;;38.50;61.50;38.70;100277;;;;561955;251;23158;-80
2022/08/29 06:49:05;;;;;;;2.28;1.85;;;39.00;59.20;38.80;100286;;;;553484;255;23203;-83
2022/08/29 06:51:33;;;;;;;2.58;1.62;;;39.00;58.00;39.10;100285;;;;553233;255;23200;-82
2022/08/29 06:54:01;;;;;;;4.85;1.67;;;39.20;57.10;39.70;100288;;;;553243;255;24222;-80
2022/08/29 06:56:29;;;;;;;2.25;1.98;;;39.70;56.20;39.90;100293;;;;553026;255;23149;-80
2022/08/29 06:58:56;;;;;;;6.97;2.40;;;40.10;54.60;40.10;100288;;;;562951;251;23149;-80
2022/08/29 07:01:24;;;;;;;2.92;2.20;;;40.20;54.20;40.90;100300;;;;553137;255;23140;-85
2022/08/29 07:03:55;;;;;;;4.65;1.90;;;40.90;53.20;41.50;100299;;;;553205;255;23184;-83
2022/08/29 07:06:23;;;;;;;6.97;1.83;;;41.50;52.60;42.00;100299;;;;553141;255;23164;-79
2022/08/29 07:08:52;;;;;;;1.83;1.65;;;42.00;51.50;42.60;100308;;;;553152;255;23157;-80
2022/08/29 07:11:16;;;;;;;3.15;1.37;;;42.60;50.30;43.00;100304;;;;552959;255;23225;-81
2022/08/29 07:13:48;;;;;;;1.70;1.60;;;43.10;48.30;43.10;100303;;;;553436;255;23146;-83
2022/08/29 07:16:17;;;;;;;8.95;2.30;;;43.10;48.30;43.70;100311;;;;548464;255;35590;-82
2022/08/29 07:18:40;;;;;;;1.70;1.52;;;43.60;47.10;43.30;100314;;;;552976;255;23278;-82
2022/08/29 07:21:08;;;;;;;2.65;1.85;;;43.50;46.90;43.10;100323;;;;553217;255;23168;-82
2022/08/29 07:23:40;;;;;;;5.62;2.03;;;43.30;47.10;43.50;100311;;;;553195;255;23145;-82
2022/08/29 07:26:10;;;;;;;4.32;1.80;;;43.50;46.70;44.10;100321;;;;552365;255;23181;-82
2022/08/29 07:28:38;;;;;;;3.60;1.42;;;44.10;46.20;44.30;100325;;;;553258;255;23196;-79
2022/08/29 07:31:06;;;;;;;6.15;1.58;;;44.30;45.30;44.10;100318;;;;553513;255;24202;-81
2022/08/29 07:33:34;;;;;;;4.95;1.60;;;44.20;45.20;43.80;100323;;;;553466;255;23161;-80
2022/08/29 07:36:02;;;;;;;1.60;1.42;;;44.10;44.80;43.80;100324;;;;553594;255;24172;-83
2022/08/29 07:38:31;;;;;;;1.45;1.35;;;43.90;45.70;43.90;100332;;;;553423;251;23152;-83
2022/08/29 07:41:05;;;;;;;3.90;1.80;;;43.50;44.90;43.40;100330;;;;553416;255;23198;-80
2022/08/29 07:43:33;;;;;;;4.28;1.70;;;43.50;44.80;43.60;100331;;;;553039;255;23158;-81
2022/08/29 07:46:10;;;;;;;1.65;1.40;;;43.50;45.10;43.80;100325;;;;553247;255;23157;-83
2022/08/29 07:48:35;;;;;;;3.62;1.70;;;43.70;45.30;44.30;100331;;;;551811;255;23158;-85
2022/08/29 07:51:03;;;;;;;3.83;1.80;;;44.20;44.90;43.80;100337;;;;552906;255;24265;-81
2022/08/29 07:53:31;;;;;;;1.98;1.45;;;44.00;44.60;43.30;100335;;;;553721;255;23158;-80
2022/08/29 07:55:59;;;;;;;3.20;1.70;;;43.60;44.60;43.40;100322;;;;553934;255;23138;-80
2022/08/29 07:58:27;;;;;;;1.60;1.50;;;43.50;45.50;43.90;100323;;;;553111;255;23204;-82
2022/08/29 08:00:55;;;;;;;4.72;1.50;;;43.80;45.80;44.50;100335;;;;553550;255;23173;-80
2022/08/29 08:03:23;;;;;;;1.83;1.42;;;44.40;44.40;45.00;100337;;;;553247;255;23187;-80
2022/08/29 08:05:54;;;;;;;3.05;1.27;;;45.50;42.90;45.50;100322;;;;553619;255;23199;-80
2022/08/29 08:08:20;;;;;;;4.43;1.65;;;45.70;42.60;45.60;100332;;;;553259;255;23134;-81
2022/08/29 08:10:48;;;;;;;3.17;1.55;;;45.70;42.50;45.80;100334;;;;553489;255;23216;-81
2022/08/29 08:13:16;;;;;;;2.50;1.48;;;45.90;42.50;46.50;100342;;;;553428;255;23148;-81
2022/08/29 08:15:44;;;;;;;1.55;1.20;;;46.50;41.80;46.60;100341;;;;553651;255;23158;-80
2022/08/29 08:18:15;;;;;;;2.78;1.35;;;46.90;40.70;45.70;100340;;;;553702;255;23138;-81
2022/08/29 08:20:46;;;;;;;1.35;1.20;;;46.20;41.70;46.10;100346;;;;553226;255;23149;-83
2022/08/29 08:23:07;;;;;;;1.55;1.20;;;46.40;40.80;46.20;100342;;;;562168;255;23150;-83
2022/08/29 08:25:39;;;;;;;1.87;1.27;;;46.50;40.60;46.80;100338;;;;553538;255;23162;-84
2022/08/29 08:28:04;;;;;;;2.33;1.45;;;47.00;39.30;46.70;100343;;;;553226;255;23159;-85
2022/08/29 08:30:33;;;;;;;1.83;1.70;;;47.00;39.30;46.20;100336;;;;553276;255;23197;-83
2022/08/29 08:33:00;;;;;;;4.60;1.40;;;46.60;39.90;46.30;100347;;;;552846;255;23223;-86
2022/08/29 08:35:28;;;;;;;1.65;1.37;;;46.70;40.00;46.20;100348;;;;552799;255;23180;-82
2022/08/29 08:37:56;;;;;;;2.65;1.30;;;46.60;39.80;46.00;100351;;;;553067;255;23187;-81
2022/08/29 08:40:27;;;;;;;4.57;1.20;;;46.40;40.30;46.00;100357;;;;552900;255;23165;-85
2022/08/29 08:42:51;;;;;;;2.25;1.30;;;46.40;40.70;46.60;100355;;;;551851;255;23209;-84
2022/08/29 08:45:21;;;;;;;4.70;1.37;;;46.80;40.30;47.00;100349;;;;552633;255;23153;-82
2022/08/29 08:48:02;;;;;;;1.30;1.23;;;47.20;39.70;47.40;100349;;;;551862;255;23157;-82
2022/08/29 08:50:43;;;;;;;1.58;1.48;;;47.70;39.40;47.90;100346;;;;548182;255;23187;-83
2022/08/29 08:53:34;;;;;;;29.48;3.30;;;48.30;39.10;48.10;100353;;;;552761;255;23164;-83
2022/08/29 08:56:03;;;;;;;1.30;1.20;;;48.50;38.20;48.20;100358;;;;553246;255;23166;-82
2022/08/29 08:58:39;;;;;;;1.20;1.20;;;49.00;37.20;48.40;100354;;;;552462;255;23149;-82
2022/08/29 09:01:20;;;;;;;2.35;1.40;;;49.30;37.30;48.50;100348;;;;561018;252;24170;-80
2022/08/29 09:04:24;;;;;;;2.33;1.30;;;49.20;37.20;48.70;100354;;;;553307;254;23214;-80
2022/08/29 09:07:17;;;;;;;3.80;1.33;;;49.60;36.80;48.40;100358;;;;562444;255;23167;-80
2022/08/29 09:09:54;;;;;;;2.58;1.00;;;49.40;36.30;48.30;100356;;;;553828;255;23151;-80
2022/08/29 09:12:37;;;;;;;3.30;1.25;;;49.30;36.90;48.50;100359;;;;553509;255;23158;-80
2022/08/29 09:15:14;;;;;;;2.85;1.30;;;49.30;36.90;49.10;100347;;;;553543;255;23172;-81
2022/08/29 09:17:56;;;;;;;1.95;1.40;;;49.80;36.40;49.10;100359;;;;563119;251;23145;-83
2022/08/29 09:20:24;;;;;;;1.48;1.27;;;50.10;36.20;48.50;100367;;;;552768;255;24239;-83
2022/08/29 09:23:08;;;;;;;1.48;1.37;;;49.80;35.60;45.80;100366;;;;553450;255;23190;-83
2022/08/29 09:25:35;;;;;;;2.45;1.58;;;47.90;36.90;43.90;100369;;;;553274;255;23241;-81
2022/08/29 09:28:06;;;;;;;4.85;1.73;;;45.80;38.70;42.50;100371;;;;552908;255;23154;-81
2022/08/29 09:30:37;;;;;;;1.85;1.40;;;44.20;40.40;42.00;100373;;;;553314;255;23194;-83
2022/08/29 09:33:11;;;;;;;4.68;1.48;;;43.30;41.80;42.20;100366;;;;552830;255;24194;-81
2022/08/29 09:36:01;;;;;;;8.85;1.52;;;43.00;42.50;43.40;100366;;;;552481;255;23214;-80
2022/08/29 09:38:26;;;;;;;2.42;1.60;;;43.80;41.90;44.90;100373;;;;553068;255;23215;-81
2022/08/29 09:40:55;;;;;;;2.47;1.00;;;45.30;40.50;45.60;100385;;;;552712;255;23225;-82
2022/08/29 09:43:38;;;;;;;5.03;1.30;;;46.20;39.30;46.20;100372;;;;552839;255;23166;-85
2022/08/29 09:46:19;;;;;;;1.37;1.27;;;47.00;38.70;46.30;100378;;;;553392;255;24185;-82
2022/08/29 09:48:52;;;;;;;2.08;1.25;;;47.40;37.90;47.20;100371;;;;561197;255;23146;-80
2022/08/29 09:51:31;;;;;;;3.08;1.65;;;48.30;37.50;47.80;100380;;;;550090;255;23175;-79
2022/08/29 09:54:24;;;;;;;2.08;1.30;;;49.20;36.80;46.30;100385;;;;552750;255;23178;-79
2022/08/29 09:57:13;;;;;;;1.12;1.00;;;48.40;37.00;44.40;100383;;;;561144;251;23207;-79
2022/08/29 09:59:43;;;;;;;4.03;1.30;;;46.80;38.10;41.90;100375;;;;553351;251;23167;-77
2022/08/29 10:02:20;;;;;;;4.70;1.17;;;43.00;41.40;41.40;100381;;;;552807;255;23179;-79
2022/08/29 10:04:54;;;;;;;7.00;2.42;;;43.30;41.50;42.40;100379;;;;552727;251;23267;-80
2022/08/29 10:07:25;;;;;;;4.18;1.40;;;43.30;41.50;43.00;100383;;;;553183;255;23206;-79
2022/08/29 10:10:02;;;;;;;2.28;1.10;;;43.80;41.00;43.20;100386;;;;553398;255;23146;-80
2022/08/29 10:13:01;;;;;;;4.62;1.70;;;44.10;40.40;42.70;100388;;;;550815;255;23251;-82
2022/08/29 10:15:47;;;;;;;1.87;1.40;;;44.10;40.40;41.10;100380;;;;562186;254;23214;-83
2022/08/29 10:18:23;;;;;;;2.83;1.48;;;42.50;41.70;39.60;100376;;;;547317;255;23145;-83
2022/08/29 10:21:19;;;;;;;3.00;1.40;;;41.00;43.30;38.60;100372;;;;553927;255;23157;-82
2022/08/29 10:24:11;;;;;;;1.92;1.60;;;39.80;45.20;37.60;100381;;;;545795;255;23164;-81
2022/08/29 10:27:06;;;;;;;3.77;1.60;;;38.50;47.00;36.00;100371;;;;548966;255;36646;-82
2022/08/29 10:30:01;;;;;;;3.97;1.40;;;37.10;48.70;35.00;100376;;;;549881;255;23172;-81
2022/08/29 10:33:03;;;;;;;6.87;1.70;;;35.80;50.40;34.70;100382;;;;553518;255;23192;-79
2022/08/29 10:35:48;;;;;;;2.70;1.25;;;35.20;51.60;34.30;100370;;;;553620;255;23204;-80
2022/08/29 10:38:38;;;;;;;10.32;1.60;;;34.70;52.60;33.70;100359;;;;553623;255;23161;-80
2022/08/29 10:41:38;;;;;;;9.95;1.65;;;34.20;52.20;33.00;100363;;;;553148;255;23159;-77
2022/08/29 10:44:43;;;;;;;4.15;1.48;;;33.60;53.00;32.30;100367;;;;553270;255;23251;-80
2022/08/29 10:47:31;;;;;;;3.15;1.08;;;31.80;55.70;31.20;100370;;;;553319;255;23177;-81
2022/08/29 10:50:04;;;;;;;8.40;4.80;;;31.70;55.60;30.60;100381;;;;553370;251;23382;-81
2022/08/29 10:52:38;;;;;;;1.23;1.10;;;31.00;58.10;29.90;100381;;;;561449;255;23154;-80
2022/08/29 10:55:11;;;;;;;2.30;1.65;;;30.30;59.30;29.40;100374;;;;552740;255;23162;-81
2022/08/29 10:57:54;;;;;;;5.40;1.67;;;29.70;60.80;29.10;100372;;;;552913;255;23160;-81
2022/08/29 11:00:25;;;;;;;6.45;1.73;;;29.40;62.30;28.80;100373;;;;561441;255;23142;-83
2022/08/29 11:03:05;;;;;;;7.95;1.98;;;29.10;62.60;28.70;100363;;;;553053;255;23227;-83
2022/08/29 11:05:33;;;;;;;4.83;1.37;;;28.90;64.50;28.50;100396;;;;549390;255;23274;-81
2022/08/29 11:08:02;;;;;;;2.43;1.57;;;28.50;65.90;28.00;100393;;;;553276;255;24181;-83
2022/08/29 11:10:29;;;;;;;1.73;1.57;;;28.40;65.80;27.60;100395;;;;553568;255;23181;-81
2022/08/29 11:13:00;;;;;;;3.80;1.27;;;28.10;66.60;27.30;100400;;;;553529;255;24197;-84
2022/08/29 11:15:52;;;;;;;2.93;1.40;;;27.70;65.50;27.00;100394;;;;553708;255;24158;-83
2022/08/29 11:18:23;;;;;;;6.63;2.50;;;27.40;67.80;26.60;100382;;;;561909;255;23162;-78
2022/08/29 11:20:57;;;;;;;7.00;1.70;;;27.00;70.00;26.30;100393;;;;553512;255;23149;-80
2022/08/29 11:23:40;;;;;;;4.03;1.70;;;26.70;71.40;25.90;100387;;;;553032;255;23158;-78
2022/08/29 11:26:08;;;;;;;3.03;1.37;;;25.90;73.50;25.50;100391;;;;553251;255;24131;-80